Airfield :
LOGIN :

Register | Disclaimer

   EN    FR    IT 

 










Legend :    VFR   Marginal VFR   IFR   Intensive IFR   Very Intensive IFR
Visi :
Ceiling :
>= 8 km
>= 3000ft
5 to 8 km
1000 to 3000 ft
1500m to 5 km
500 to 1000 ft
800 to 1500m
200 to 500 ft
< 800m
< 200 ft
Symbols :   Thunderstorms  Fog  Heavy snow  Heavy precipitations  Wind > 20 kt
SIGMETs :     Misc.  Thunderstorms  Icing  Turbulence  Mountain Waves  Volcanic Ashes







- Airport Elevation : 8 ft
- IATA code : LCA


LCLK - Larnaca Int.

CURRENT METAR :
  • 152100Z 21004KT CAVOK 24/22 Q1007 NOSIG

EXPIRED METARs :
  • 152030Z 21004KT CAVOK 25/22 Q1007 NOSIG
  • 152000Z 21004KT CAVOK 25/22 Q1007 NOSIG
  • 151930Z 22005KT CAVOK 25/22 Q1007 NOSIG
  • 151900Z 23007KT 9999 FEW025 25/22 Q1007 NOSIG
  • 151830Z 23009KT 9999 FEW025 25/22 Q1006 NOSIG

TAF TAF LCLK
Valid from the 15 at 18:00 until the 16 at 18:00 UTC


151730Z 1518/1618 23010KT 9999 FEW025
BECMG 1518/1520 29005KT
PROB30 1520/1605 5000 BR BKN010
PROB30
TEMPO 1523/1605 0800 BCFG SCT003 BKN005
BECMG 1608/1611 19013KT
BECMG 1616/1618 24005KT
No reported NOTAMs for that airfield.



MET'MAP, your aeronautical weather chart ! - Copyright ORBIFLY December 2007 - Disclaimer

ORBIFLY MET'MAP TEAM :

Programming & Development : Alexandra Zaïnal
Concept & Development : Baudouin d'Aumeries
Co-Development & Prog : Marc-Olivier Méhu
Technical & hardware support : Manuel Goepfert

Contact : metmap@orbifly.com




SOURCES & CREDITS :

   NOAA